Time;durP1;ratioP1;P1;durP2;ratioP2;P2;SDS_P1;SDS_P2;PMS_P1;PMS_P2;Temp;Humidity;BMP_temperature;BMP_pressure;BME280_temperature;BME280_humidity;BME280_pressure;Samples;Min_cycle;Max_cycle;Signal;HPM_P1;HPM_P2
2022/10/06 00:00:52;;;;;;;12.00;2.83;;;;;;;;;;5031537;28;20033;-62
2022/10/06 00:03:21;;;;;;;19.88;4.03;;;;;;;;;;5031958;28;20108;-62
2022/10/06 00:05:48;;;;;;;12.63;3.78;;;;;;;;;;5031432;28;20031;-62
2022/10/06 00:08:14;;;;;;;18.20;4.07;;;;;;;;;;5031566;28;20041;-62
2022/10/06 00:10:40;;;;;;;12.75;3.20;;;;;;;;;;5031112;28;20065;-62
2022/10/06 00:13:06;;;;;;;20.33;3.80;;;;;;;;;;5031807;28;20030;-62
2022/10/06 00:15:33;;;;;;;18.35;3.83;;;;;;;;;;5031414;28;20048;-62
2022/10/06 00:18:00;;;;;;;15.80;3.40;;;;;;;;;;5031838;28;20055;-61
2022/10/06 00:20:27;;;;;;;19.60;3.78;;;;;;;;;;5031873;28;20513;-61
2022/10/06 00:22:53;;;;;;;18.80;3.13;;;;;;;;;;5031249;28;20028;-61
2022/10/06 00:25:21;;;;;;;25.42;3.83;;;;;;;;;;5031222;28;20474;-61
2022/10/06 00:27:48;;;;;;;18.45;3.45;;;;;;;;;;5031209;28;20061;-61
2022/10/06 00:30:17;;;;;;;21.20;3.85;;;;;;;;;;5030095;28;20056;-61
2022/10/06 00:32:55;;;;;;;22.90;3.22;;;;;;;;;;5033676;28;20021;-61
2022/10/06 00:35:21;;;;;;;15.70;3.35;;;;;;;;;;5034861;28;20033;-61
2022/10/06 00:37:48;;;;;;;15.80;3.05;;;;;;;;;;5027984;28;20091;-61
2022/10/06 00:40:14;;;;;;;13.77;4.30;;;;;;;;;;5033662;28;20496;-61
2022/10/06 00:42:58;;;;;;;14.90;2.65;;;;;;;;;;5034580;28;20505;-61
2022/10/06 00:45:45;;;;;;;19.00;3.28;;;;;;;;;;5033538;28;20370;-61
2022/10/06 00:48:17;;;;;;;18.20;3.40;;;;;;;;;;5021243;28;20543;-61
2022/10/06 00:50:43;;;;;;;15.43;2.83;;;;;;;;;;5035030;28;20116;-61
2022/10/06 00:53:10;;;;;;;15.80;4.03;;;;;;;;;;5033370;28;20018;-61
2022/10/06 00:55:36;;;;;;;18.38;3.42;;;;;;;;;;5034343;28;20034;-61
2022/10/06 00:58:04;;;;;;;9.43;1.92;;;;;;;;;;5034784;28;20086;-61
2022/10/06 01:00:30;;;;;;;17.17;2.88;;;;;;;;;;5034902;28;20013;-61
2022/10/06 01:03:11;;;;;;;14.93;2.72;;;;;;;;;;5034622;28;20385;-61
2022/10/06 01:05:42;;;;;;;19.00;4.07;;;;;;;;;;5034346;28;20492;-61
2022/10/06 01:08:08;;;;;;;13.95;2.67;;;;;;;;;;5034458;28;20033;-61
2022/10/06 01:10:34;;;;;;;16.02;2.63;;;;;;;;;;5034212;28;20192;-61
2022/10/06 01:13:01;;;;;;;19.40;3.28;;;;;;;;;;5034399;28;20393;-61
2022/10/06 01:15:27;;;;;;;15.55;2.90;;;;;;;;;;5034488;28;20021;-61
2022/10/06 01:17:59;;;;;;;12.82;2.78;;;;;;;;;;5033687;28;20053;-61
2022/10/06 01:20:28;;;;;;;19.60;3.03;;;;;;;;;;5033285;28;20029;-61
2022/10/06 01:22:56;;;;;;;15.45;2.60;;;;;;;;;;5032604;28;20028;-61
2022/10/06 01:25:22;;;;;;;15.60;2.70;;;;;;;;;;5033169;28;20037;-61
2022/10/06 01:27:52;;;;;;;14.70;2.50;;;;;;;;;;5032558;28;20025;-61
2022/10/06 01:30:24;;;;;;;16.05;2.85;;;;;;;;;;5034505;28;20021;-61
2022/10/06 01:32:50;;;;;;;15.13;3.42;;;;;;;;;;5034005;28;20075;-61
2022/10/06 01:35:17;;;;;;;20.40;3.10;;;;;;;;;;5033059;28;20041;-61
2022/10/06 01:37:43;;;;;;;12.20;2.75;;;;;;;;;;5033626;28;20061;-61
2022/10/06 01:40:09;;;;;;;16.67;2.55;;;;;;;;;;5032725;28;20497;-61
2022/10/06 01:42:36;;;;;;;12.77;2.53;;;;;;;;;;5032696;28;20025;-61
2022/10/06 01:45:03;;;;;;;12.68;1.80;;;;;;;;;;5032037;28;20045;-61
2022/10/06 01:47:29;;;;;;;11.75;2.20;;;;;;;;;;5034252;28;20120;-61
2022/10/06 01:49:56;;;;;;;16.27;2.72;;;;;;;;;;5033539;28;20037;-61
2022/10/06 01:52:23;;;;;;;11.77;2.53;;;;;;;;;;5033616;28;20508;-61
2022/10/06 01:54:49;;;;;;;16.98;3.15;;;;;;;;;;5032238;28;20546;-61
2022/10/06 01:57:15;;;;;;;13.80;2.55;;;;;;;;;;5033264;28;20111;-61
2022/10/06 01:59:42;;;;;;;31.90;4.20;;;;;;;;;;5032203;28;20017;-61
2022/10/06 02:02:08;;;;;;;11.55;2.42;;;;;;;;;;5032819;28;20022;-61
2022/10/06 02:04:34;;;;;;;13.77;3.00;;;;;;;;;;5033846;28;20524;-61
2022/10/06 02:07:01;;;;;;;15.20;2.92;;;;;;;;;;5031691;28;20401;-61
2022/10/06 02:09:27;;;;;;;12.40;3.17;;;;;;;;;;5031888;28;20057;-61
2022/10/06 02:11:54;;;;;;;14.00;4.05;;;;;;;;;;5031227;28;20029;-61
2022/10/06 02:14:20;;;;;;;10.57;2.47;;;;;;;;;;5033771;28;20029;-61
2022/10/06 02:16:47;;;;;;;13.57;2.50;;;;;;;;;;5031636;28;20036;-61
2022/10/06 02:19:13;;;;;;;15.93;3.00;;;;;;;;;;5031564;28;20021;-61
2022/10/06 02:21:39;;;;;;;12.95;2.40;;;;;;;;;;5031827;28;20075;-61
2022/10/06 02:24:05;;;;;;;10.75;2.80;;;;;;;;;;5032938;28;20021;-61
2022/10/06 02:26:32;;;;;;;7.68;2.03;;;;;;;;;;5033116;28;20061;-61
2022/10/06 02:28:58;;;;;;;9.73;2.50;;;;;;;;;;5031504;28;20032;-61
2022/10/06 02:31:24;;;;;;;15.40;2.92;;;;;;;;;;5032505;28;20071;-61
2022/10/06 02:33:51;;;;;;;10.82;2.83;;;;;;;;;;5030933;28;20025;-61
2022/10/06 02:36:18;;;;;;;17.42;2.78;;;;;;;;;;5029398;28;20124;-61
2022/10/06 02:38:44;;;;;;;9.02;2.15;;;;;;;;;;5022758;28;20030;-61
2022/10/06 02:41:11;;;;;;;11.10;2.55;;;;;;;;;;5030555;28;20075;-61
2022/10/06 02:43:38;;;;;;;14.43;2.22;;;;;;;;;;5031694;28;20013;-61
2022/10/06 02:46:06;;;;;;;11.40;2.97;;;;;;;;;;5032621;28;20065;-61
2022/10/06 02:48:33;;;;;;;15.55;2.60;;;;;;;;;;5032545;28;20033;-61
2022/10/06 02:51:01;;;;;;;10.68;2.70;;;;;;;;;;5030810;28;20033;-61
2022/10/06 02:53:28;;;;;;;18.00;2.45;;;;;;;;;;5031609;28;20017;-61
2022/10/06 02:56:16;;;;;;;24.52;3.70;;;;;;;;;;5031187;28;20087;-61
2022/10/06 02:58:43;;;;;;;10.57;3.35;;;;;;;;;;5032524;28;20036;-61
2022/10/06 03:01:13;;;;;;;7.45;1.77;;;;;;;;;;5031034;28;20116;-61
2022/10/06 03:03:40;;;;;;;9.00;2.95;;;;;;;;;;5032505;28;20533;-61
2022/10/06 03:06:23;;;;;;;11.88;2.22;;;;;;;;;;5032121;28;20025;-61
2022/10/06 03:09:00;;;;;;;5.60;2.25;;;;;;;;;;5030748;28;20052;-61
2022/10/06 03:11:28;;;;;;;12.75;3.28;;;;;;;;;;5031261;28;20044;-61
2022/10/06 03:13:54;;;;;;;9.30;2.08;;;;;;;;;;5031025;28;20555;-61
2022/10/06 03:16:22;;;;;;;16.63;3.25;;;;;;;;;;5032159;28;20033;-61
2022/10/06 03:18:49;;;;;;;12.20;2.45;;;;;;;;;;5031018;28;20441;-61
2022/10/06 03:21:16;;;;;;;12.18;2.50;;;;;;;;;;5031855;28;20383;-61
2022/10/06 03:23:43;;;;;;;9.13;1.98;;;;;;;;;;5031141;28;20049;-61
2022/10/06 03:26:10;;;;;;;6.45;1.55;;;;;;;;;;5031063;28;20041;-61
2022/10/06 03:28:38;;;;;;;9.70;2.28;;;;;;;;;;5030914;28;20055;-61
2022/10/06 03:31:05;;;;;;;10.55;3.63;;;;;;;;;;5030325;28;20374;-61
2022/10/06 03:33:32;;;;;;;13.60;2.58;;;;;;;;;;5030734;28;20374;-61
2022/10/06 03:35:59;;;;;;;10.90;2.00;;;;;;;;;;5030779;28;20051;-61
2022/10/06 03:38:26;;;;;;;19.65;2.40;;;;;;;;;;5030732;28;20512;-61
2022/10/06 03:40:52;;;;;;;12.65;2.10;;;;;;;;;;5030844;28;20074;-61
2022/10/06 03:43:19;;;;;;;15.13;2.55;;;;;;;;;;5030441;28;20024;-61
2022/10/06 03:45:55;;;;;;;7.97;1.77;;;;;;;;;;5030800;28;20037;-61
2022/10/06 03:48:22;;;;;;;7.97;2.15;;;;;;;;;;5030211;28;20033;-61
2022/10/06 03:50:58;;;;;;;7.05;2.08;;;;;;;;;;5030667;28;20029;-61
2022/10/06 03:53:27;;;;;;;12.60;2.60;;;;;;;;;;5030493;28;20029;-61
2022/10/06 03:55:59;;;;;;;8.40;2.15;;;;;;;;;;5030463;28;20408;-61
2022/10/06 03:58:26;;;;;;;19.65;2.28;;;;;;;;;;5032206;28;20034;-61
2022/10/06 04:00:59;;;;;;;14.88;2.45;;;;;;;;;;5026983;28;20026;-61
2022/10/06 04:03:26;;;;;;;14.55;2.70;;;;;;;;;;5027101;28;20037;-61
2022/10/06 04:05:55;;;;;;;13.27;1.83;;;;;;;;;;5030062;28;20030;-61
2022/10/06 04:08:23;;;;;;;14.02;1.75;;;;;;;;;;5033293;28;20127;-61
2022/10/06 04:10:50;;;;;;;6.82;2.17;;;;;;;;;;5033106;28;20076;-61
2022/10/06 04:13:20;;;;;;;9.23;2.38;;;;;;;;;;5034000;28;20029;-61
2022/10/06 04:15:48;;;;;;;9.00;1.73;;;;;;;;;;5033942;28;20559;-61
2022/10/06 04:18:14;;;;;;;10.32;2.53;;;;;;;;;;5035671;28;20385;-62
2022/10/06 04:20:41;;;;;;;13.77;1.80;;;;;;;;;;5031974;28;20100;-62
2022/10/06 04:23:07;;;;;;;6.28;1.70;;;;;;;;;;5031836;28;20168;-62
2022/10/06 04:25:34;;;;;;;17.63;3.17;;;;;;;;;;5018237;28;20080;-62
2022/10/06 04:28:00;;;;;;;13.60;2.58;;;;;;;;;;5033305;28;20057;-62
2022/10/06 04:30:26;;;;;;;8.82;2.22;;;;;;;;;;5034964;28;20486;-62
2022/10/06 04:32:54;;;;;;;16.17;2.00;;;;;;;;;;5029770;28;20072;-62
2022/10/06 04:35:20;;;;;;;12.13;2.20;;;;;;;;;;5034823;28;20567;-62
2022/10/06 04:37:46;;;;;;;8.98;2.20;;;;;;;;;;5033589;28;20029;-62
2022/10/06 04:40:13;;;;;;;11.30;2.03;;;;;;;;;;5033534;28;20032;-62
2022/10/06 04:42:39;;;;;;;9.68;2.72;;;;;;;;;;5031724;28;20075;-62
2022/10/06 04:45:10;;;;;;;13.32;1.77;;;;;;;;;;5032882;28;20033;-62
2022/10/06 04:47:39;;;;;;;13.13;1.63;;;;;;;;;;5026984;28;20450;-62
2022/10/06 04:50:05;;;;;;;19.70;2.08;;;;;;;;;;5016748;28;20036;-62
2022/10/06 04:52:31;;;;;;;4.10;1.88;;;;;;;;;;5029285;28;20084;-62
2022/10/06 04:54:58;;;;;;;8.93;1.85;;;;;;;;;;5025356;28;20026;-62
2022/10/06 04:57:24;;;;;;;8.57;2.38;;;;;;;;;;5029809;28;20033;-61
2022/10/06 05:02:36;;;;;;;11.82;2.15;;;;;;;;;;5030629;28;20508;-61
2022/10/06 05:05:02;;;;;;;7.10;2.10;;;;;;;;;;5032389;28;20026;-61
2022/10/06 05:07:28;;;;;;;9.80;4.30;;;;;;;;;;5030665;28;20034;-61
2022/10/06 05:09:56;;;;;;;14.93;2.03;;;;;;;;;;5032837;28;20038;-61
2022/10/06 05:12:22;;;;;;;9.40;1.80;;;;;;;;;;5033135;28;20104;-61
2022/10/06 05:14:49;;;;;;;10.60;2.33;;;;;;;;;;5032647;28;20036;-61
2022/10/06 05:17:16;;;;;;;11.18;2.80;;;;;;;;;;5033104;28;20494;-61
2022/10/06 05:19:43;;;;;;;11.10;2.00;;;;;;;;;;5015647;28;20041;-61
2022/10/06 05:22:09;;;;;;;12.15;2.17;;;;;;;;;;5033124;28;20104;-61
2022/10/06 05:24:35;;;;;;;27.67;2.55;;;;;;;;;;5032871;28;20095;-61
2022/10/06 05:27:02;;;;;;;14.27;1.83;;;;;;;;;;5033127;28;20033;-61
2022/10/06 05:29:29;;;;;;;7.47;1.80;;;;;;;;;;5032464;28;20390;-61
2022/10/06 05:31:56;;;;;;;10.07;2.53;;;;;;;;;;5034132;28;20489;-61
2022/10/06 05:34:22;;;;;;;15.65;2.05;;;;;;;;;;5032814;28;20040;-61
2022/10/06 05:36:49;;;;;;;8.77;1.73;;;;;;;;;;5034161;28;20461;-65
2022/10/06 05:39:16;;;;;;;13.88;1.85;;;;;;;;;;5034018;28;20026;-63
2022/10/06 05:41:46;;;;;;;11.10;1.92;;;;;;;;;;5032571;28;20028;-62
2022/10/06 05:44:13;;;;;;;8.38;1.95;;;;;;;;;;5032046;28;20405;-62
2022/10/06 05:46:40;;;;;;;7.50;2.10;;;;;;;;;;5032269;28;20482;-61
2022/10/06 05:49:10;;;;;;;17.60;2.08;;;;;;;;;;5032296;28;20120;-61
2022/10/06 05:51:39;;;;;;;9.05;1.80;;;;;;;;;;5033195;28;20026;-61
2022/10/06 05:54:16;;;;;;;14.75;2.00;;;;;;;;;;5033182;28;20045;-61
2022/10/06 05:56:43;;;;;;;8.63;2.00;;;;;;;;;;5032432;28;20073;-61
2022/10/06 05:59:09;;;;;;;15.70;2.60;;;;;;;;;;5031237;28;20024;-62
2022/10/06 06:01:38;;;;;;;9.52;2.33;;;;;;;;;;5032344;28;20032;-62
2022/10/06 06:04:10;;;;;;;9.27;2.05;;;;;;;;;;5031983;28;20151;-62
2022/10/06 06:06:43;;;;;;;9.60;2.25;;;;;;;;;;5016396;28;20520;-62
2022/10/06 06:09:14;;;;;;;10.02;2.20;;;;;;;;;;5032087;28;20528;-62
2022/10/06 06:11:43;;;;;;;12.90;2.10;;;;;;;;;;5032081;28;20037;-62
2022/10/06 06:14:11;;;;;;;4.78;1.60;;;;;;;;;;5031274;28;20041;-61
2022/10/06 06:16:38;;;;;;;10.18;2.00;;;;;;;;;;5031138;28;20041;-61
2022/10/06 06:19:06;;;;;;;7.75;1.60;;;;;;;;;;5033377;28;20029;-61
2022/10/06 06:21:33;;;;;;;12.27;2.40;;;;;;;;;;5031943;28;20367;-61
2022/10/06 06:23:59;;;;;;;8.48;2.08;;;;;;;;;;5033328;28;20029;-62
2022/10/06 06:26:26;;;;;;;12.60;1.88;;;;;;;;;;5031851;28;20040;-62
2022/10/06 06:28:54;;;;;;;7.60;2.13;;;;;;;;;;5032192;28;20152;-62
2022/10/06 06:31:25;;;;;;;11.43;2.58;;;;;;;;;;5031968;28;20026;-62
2022/10/06 06:33:55;;;;;;;14.37;2.53;;;;;;;;;;5031325;28;20033;-62
2022/10/06 06:36:28;;;;;;;18.17;2.40;;;;;;;;;;5031888;28;20045;-62
2022/10/06 06:38:56;;;;;;;8.02;2.47;;;;;;;;;;5031735;28;20025;-62
2022/10/06 06:41:27;;;;;;;20.00;2.38;;;;;;;;;;5031932;28;20478;-62
2022/10/06 06:44:01;;;;;;;10.02;2.13;;;;;;;;;;5031839;28;20021;-62
2022/10/06 06:46:36;;;;;;;10.48;2.50;;;;;;;;;;5031644;28;20034;-62
2022/10/06 06:49:06;;;;;;;5.25;2.35;;;;;;;;;;5031663;28;20025;-62
2022/10/06 06:51:48;;;;;;;13.02;2.90;;;;;;;;;;5031582;28;20044;-62
2022/10/06 06:54:17;;;;;;;12.65;3.15;;;;;;;;;;5031648;28;20047;-62
2022/10/06 06:56:47;;;;;;;11.63;2.90;;;;;;;;;;5030372;28;20482;-62
2022/10/06 06:59:16;;;;;;;16.27;3.25;;;;;;;;;;5031572;28;20497;-62
2022/10/06 07:01:47;;;;;;;11.10;2.65;;;;;;;;;;5031389;28;20030;-62
2022/10/06 07:04:16;;;;;;;10.90;3.17;;;;;;;;;;5031363;28;20442;-62
2022/10/06 07:06:55;;;;;;;10.98;2.50;;;;;;;;;;5031147;28;20025;-62
2022/10/06 07:09:22;;;;;;;12.77;3.13;;;;;;;;;;5030836;28;20045;-62
2022/10/06 07:11:49;;;;;;;17.75;3.03;;;;;;;;;;5029364;28;20025;-62
2022/10/06 07:14:21;;;;;;;11.45;2.63;;;;;;;;;;5028790;28;20131;-62
2022/10/06 07:25:13;;;;;;;11.35;2.88;;;;;;;;;;5025526;28;20057;-62
2022/10/06 07:27:44;;;;;;;12.35;3.22;;;;;;;;;;5024536;28;20080;-62
2022/10/06 07:30:17;;;;;;;11.40;3.13;;;;;;;;;;5029411;28;20454;-62
2022/10/06 07:32:44;;;;;;;11.73;3.13;;;;;;;;;;5029301;28;20029;-62
2022/10/06 07:35:11;;;;;;;12.25;3.60;;;;;;;;;;5029668;28;20079;-62
2022/10/06 07:37:37;;;;;;;14.10;3.10;;;;;;;;;;5029514;28;20103;-62
2022/10/06 07:40:05;;;;;;;15.15;4.05;;;;;;;;;;5029007;28;20124;-62
2022/10/06 07:42:46;;;;;;;11.57;2.95;;;;;;;;;;5028438;28;20029;-62
2022/10/06 07:48:03;;;;;;;21.08;3.80;;;;;;;;;;5022978;28;20035;-62
2022/10/06 07:50:30;;;;;;;22.27;3.47;;;;;;;;;;5029548;28;20035;-62
2022/10/06 07:52:56;;;;;;;17.63;3.00;;;;;;;;;;5029870;28;20034;-62
2022/10/06 07:55:23;;;;;;;15.10;3.53;;;;;;;;;;5032477;28;20346;-62
2022/10/06 07:58:12;;;;;;;19.98;3.28;;;;;;;;;;5022228;28;20029;-62
2022/10/06 08:00:39;;;;;;;17.38;3.13;;;;;;;;;;5031071;28;20033;-62
2022/10/06 08:03:05;;;;;;;10.85;3.30;;;;;;;;;;5029974;28;20080;-62
2022/10/06 08:05:31;;;;;;;20.00;3.83;;;;;;;;;;5030600;28;20025;-62
2022/10/06 08:07:57;;;;;;;13.38;3.22;;;;;;;;;;5029696;28;20033;-62
2022/10/06 08:10:24;;;;;;;20.50;3.38;;;;;;;;;;5030615;28;20516;-62
2022/10/06 08:12:50;;;;;;;20.17;4.65;;;;;;;;;;5030083;28;20040;-62
2022/10/06 08:15:17;;;;;;;19.13;3.70;;;;;;;;;;5030404;28;20162;-62
2022/10/06 08:17:43;;;;;;;17.67;3.65;;;;;;;;;;5030529;28;20018;-62
2022/10/06 08:20:10;;;;;;;17.75;3.30;;;;;;;;;;5030502;28;20393;-62
2022/10/06 08:22:38;;;;;;;17.35;3.30;;;;;;;;;;5029034;28;20465;-62
2022/10/06 08:25:05;;;;;;;25.88;4.03;;;;;;;;;;5029902;28;20527;-62
2022/10/06 08:27:33;;;;;;;27.70;3.85;;;;;;;;;;5031113;28;20030;-62
2022/10/06 08:29:59;;;;;;;25.77;5.85;;;;;;;;;;5030300;28;20033;-62
2022/10/06 08:32:25;;;;;;;20.50;3.55;;;;;;;;;;5030337;28;20025;-62
2022/10/06 08:34:51;;;;;;;20.13;3.55;;;;;;;;;;5030836;28;20496;-62
2022/10/06 08:37:22;;;;;;;18.17;3.25;;;;;;;;;;5029593;28;20037;-62
2022/10/06 08:39:51;;;;;;;17.75;4.32;;;;;;;;;;5030408;28;20049;-62
2022/10/06 08:42:22;;;;;;;12.43;3.58;;;;;;;;;;5030036;28;20037;-62
2022/10/06 08:44:55;;;;;;;18.08;3.80;;;;;;;;;;5030240;28;20029;-62
2022/10/06 08:47:21;;;;;;;;;;;;;;;;;;5029277;28;20022;-62
2022/10/06 08:49:49;;;;;;;17.10;3.50;;;;;;;;;;5030067;28;19959;-62
2022/10/06 08:52:30;;;;;;;18.65;3.17;;;;;;;;;;5029715;28;20038;-62
2022/10/06 08:54:57;;;;;;;18.10;4.90;;;;;;;;;;5034069;28;20064;-62
2022/10/06 08:57:46;;;;;;;15.18;3.65;;;;;;;;;;5033626;28;20072;-62
2022/10/06 09:00:13;;;;;;;22.20;3.40;;;;;;;;;;5021186;28;20040;-62
2022/10/06 09:02:44;;;;;;;15.55;3.35;;;;;;;;;;5031269;28;20068;-62
2022/10/06 09:05:12;;;;;;;16.80;3.15;;;;;;;;;;5032492;28;20033;-62
2022/10/06 09:07:47;;;;;;;15.88;2.72;;;;;;;;;;5033515;28;20104;-62
2022/10/06 09:10:22;;;;;;;17.23;3.28;;;;;;;;;;5033937;28;20538;-62
2022/10/06 09:13:03;;;;;;;21.55;3.70;;;;;;;;;;5034193;28;20051;-62
2022/10/06 09:15:33;;;;;;;16.67;3.08;;;;;;;;;;5032429;28;20453;-62
2022/10/06 09:18:09;;;;;;;16.80;3.17;;;;;;;;;;5030838;28;20026;-62
2022/10/06 09:21:08;;;;;;;15.07;2.85;;;;;;;;;;5025924;28;20471;-62
2022/10/06 09:23:47;;;;;;;16.00;3.55;;;;;;;;;;5029749;28;20052;-62
2022/10/06 09:26:21;;;;;;;27.77;3.72;;;;;;;;;;5030713;28;20041;-62
2022/10/06 09:28:47;;;;;;;12.05;2.53;;;;;;;;;;5029283;28;20539;-62
2022/10/06 09:31:24;;;;;;;17.17;3.78;;;;;;;;;;5030190;28;20048;-62
2022/10/06 09:33:52;;;;;;;20.17;2.78;;;;;;;;;;5030680;28;20046;-62
2022/10/06 09:36:18;;;;;;;14.43;2.97;;;;;;;;;;5030299;28;20534;-62
2022/10/06 09:38:46;;;;;;;26.67;3.20;;;;;;;;;;5030661;28;20105;-62
2022/10/06 09:41:13;;;;;;;20.23;3.00;;;;;;;;;;5030598;28;20032;-62
2022/10/06 09:43:39;;;;;;;24.50;3.20;;;;;;;;;;5030940;28;20026;-62
2022/10/06 09:46:27;;;;;;;24.90;4.70;;;;;;;;;;5030526;28;20040;-62
2022/10/06 09:49:12;;;;;;;16.40;3.65;;;;;;;;;;5030286;28;20068;-62
2022/10/06 09:51:38;;;;;;;20.13;3.15;;;;;;;;;;5022920;28;20030;-62
2022/10/06 09:54:13;;;;;;;19.95;2.80;;;;;;;;;;5030395;28;20068;-62
2022/10/06 09:56:40;;;;;;;20.88;3.10;;;;;;;;;;5030436;28;20545;-62
2022/10/06 09:59:15;;;;;;;30.35;2.97;;;;;;;;;;5031656;28;20030;-62
2022/10/06 10:01:41;;;;;;;17.08;2.70;;;;;;;;;;5024903;28;20195;-62
2022/10/06 10:04:13;;;;;;;23.63;2.88;;;;;;;;;;5032122;28;20101;-62
2022/10/06 10:06:40;;;;;;;17.42;2.75;;;;;;;;;;5032591;28;20108;-62
2022/10/06 10:09:13;;;;;;;18.83;3.13;;;;;;;;;;5032462;28;20033;-62
2022/10/06 10:14:24;;;;;;;22.63;3.72;;;;;;;;;;5031776;28;20029;-62
2022/10/06 10:16:50;;;;;;;22.48;3.00;;;;;;;;;;5032595;28;20029;-62
2022/10/06 10:19:31;;;;;;;19.55;2.67;;;;;;;;;;5031978;28;20029;-62
2022/10/06 10:21:59;;;;;;;14.33;2.90;;;;;;;;;;5032074;28;20108;-62
2022/10/06 10:24:31;;;;;;;23.70;3.58;;;;;;;;;;5032176;28;20256;-62
2022/10/06 10:27:07;;;;;;;28.50;3.30;;;;;;;;;;5032412;28;20033;-62
2022/10/06 10:29:39;;;;;;;22.60;3.58;;;;;;;;;;5032255;28;20029;-62
2022/10/06 10:32:25;;;;;;;21.93;2.93;;;;;;;;;;5031974;28;20512;-62
2022/10/06 10:34:57;;;;;;;27.30;3.17;;;;;;;;;;5032112;28;20079;-62
2022/10/06 10:37:44;;;;;;;20.15;3.33;;;;;;;;;;5031707;28;20041;-62
2022/10/06 10:40:14;;;;;;;26.10;3.67;;;;;;;;;;5032656;28;20041;-62
2022/10/06 10:42:53;;;;;;;18.63;2.78;;;;;;;;;;5003913;28;20399;-62
2022/10/06 10:45:35;;;;;;;22.83;2.70;;;;;;;;;;5033930;28;20056;-62
2022/10/06 10:48:05;;;;;;;15.48;2.63;;;;;;;;;;5022315;28;20042;-62
2022/10/06 10:50:33;;;;;;;19.70;3.30;;;;;;;;;;5025911;28;20037;-62
2022/10/06 10:53:08;;;;;;;11.68;2.55;;;;;;;;;;5026122;28;20116;-62
2022/10/06 10:55:39;;;;;;;9.15;2.17;;;;;;;;;;5016516;28;20056;-62
2022/10/06 10:58:18;;;;;;;19.25;3.47;;;;;;;;;;5023890;28;20033;-62
2022/10/06 11:00:46;;;;;;;18.08;2.50;;;;;;;;;;5022761;28;20033;-62
2022/10/06 11:03:13;;;;;;;20.63;4.13;;;;;;;;;;5022209;28;20041;-62
2022/10/06 11:05:57;;;;;;;18.23;3.15;;;;;;;;;;5024582;28;20606;-62
2022/10/06 11:08:34;;;;;;;17.08;2.80;;;;;;;;;;5024278;28;20056;-62
2022/10/06 11:11:04;;;;;;;22.65;2.92;;;;;;;;;;5029889;28;20056;-62
2022/10/06 11:13:47;;;;;;;15.15;2.95;;;;;;;;;;5028028;28;20489;-62
2022/10/06 11:16:20;;;;;;;22.17;3.35;;;;;;;;;;5026299;28;20540;-62
2022/10/06 11:18:46;;;;;;;22.08;3.03;;;;;;;;;;5027787;28;20071;-62
2022/10/06 11:21:15;;;;;;;17.48;2.90;;;;;;;;;;5027441;28;20041;-62
2022/10/06 11:23:44;;;;;;;17.85;2.50;;;;;;;;;;5028128;28;20135;-62
2022/10/06 11:26:29;;;;;;;21.98;3.17;;;;;;;;;;5031220;28;20089;-62
2022/10/06 11:28:58;;;;;;;13.48;2.92;;;;;;;;;;5030896;28;20033;-62
2022/10/06 11:31:43;;;;;;;13.40;2.08;;;;;;;;;;5027829;28;20021;-62
2022/10/06 11:34:10;;;;;;;18.55;2.63;;;;;;;;;;5028449;28;20021;-63
2022/10/06 11:36:46;;;;;;;12.48;2.45;;;;;;;;;;5026974;28;20029;-62
2022/10/06 11:39:24;;;;;;;16.38;2.33;;;;;;;;;;5026174;28;20039;-62
2022/10/06 11:42:03;;;;;;;17.48;2.47;;;;;;;;;;5030229;28;20029;-62
2022/10/06 11:44:32;;;;;;;18.95;2.72;;;;;;;;;;5031008;28;20035;-63
2022/10/06 11:47:05;;;;;;;13.88;2.70;;;;;;;;;;5030858;28;20018;-63
2022/10/06 11:49:31;;;;;;;;;;;;;;;;;;5031918;28;20025;-63
2022/10/06 11:51:57;;;;;;;9.90;2.80;;;;;;;;;;5030186;28;19955;-63
2022/10/06 11:54:35;;;;;;;12.02;2.47;;;;;;;;;;5031019;28;20029;-63
2022/10/06 11:57:01;;;;;;;16.98;2.50;;;;;;;;;;5030435;28;20041;-63
2022/10/06 11:59:30;;;;;;;23.58;3.33;;;;;;;;;;5030841;28;20433;-63
2022/10/06 12:01:56;;;;;;;15.90;2.75;;;;;;;;;;5029873;28;20374;-63
2022/10/06 12:04:25;;;;;;;13.05;2.28;;;;;;;;;;5030940;28;20056;-63
2022/10/06 12:06:55;;;;;;;17.30;2.60;;;;;;;;;;5030492;28;20112;-63
2022/10/06 12:09:21;;;;;;;8.75;1.98;;;;;;;;;;5030746;28;20498;-63
2022/10/06 12:11:49;;;;;;;19.10;3.17;;;;;;;;;;5030398;28;20041;-63
2022/10/06 12:14:34;;;;;;;12.95;3.00;;;;;;;;;;5030726;28;20140;-63
2022/10/06 12:17:20;;;;;;;12.50;2.47;;;;;;;;;;5030860;28;20039;-63
2022/10/06 12:20:13;;;;;;;16.92;2.40;;;;;;;;;;5030140;28;20033;-63
2022/10/06 12:22:57;;;;;;;17.17;3.00;;;;;;;;;;5026185;28;20457;-63
2022/10/06 12:25:26;;;;;;;15.85;2.78;;;;;;;;;;5026153;28;20049;-63
2022/10/06 12:28:11;;;;;;;21.40;3.22;;;;;;;;;;5031459;28;20512;-63
2022/10/06 12:30:51;;;;;;;19.75;2.47;;;;;;;;;;5034213;28;20420;-62
2022/10/06 12:33:18;;;;;;;16.42;2.03;;;;;;;;;;5034189;28;20040;-62
2022/10/06 12:35:44;;;;;;;13.20;2.15;;;;;;;;;;5034388;28;20049;-62
2022/10/06 12:38:29;;;;;;;17.00;2.85;;;;;;;;;;5033875;28;20113;-62
2022/10/06 12:40:55;;;;;;;9.20;1.98;;;;;;;;;;5033786;28;20109;-62
2022/10/06 12:43:21;;;;;;;13.70;2.58;;;;;;;;;;5033804;28;20504;-62
2022/10/06 12:45:53;;;;;;;14.35;1.95;;;;;;;;;;5034247;28;20025;-62
2022/10/06 12:48:25;;;;;;;11.82;2.83;;;;;;;;;;5033090;28;20473;-62
2022/10/06 12:50:56;;;;;;;12.95;2.42;;;;;;;;;;5027211;28;20505;-62
2022/10/06 12:53:33;;;;;;;11.32;2.08;;;;;;;;;;5026351;28;20029;-62
2022/10/06 12:56:02;;;;;;;12.65;2.45;;;;;;;;;;5033643;28;20505;-62
2022/10/06 12:58:28;;;;;;;14.63;2.53;;;;;;;;;;5033572;28;20029;-62
2022/10/06 13:00:59;;;;;;;14.40;2.35;;;;;;;;;;5033855;28;20033;-62
2022/10/06 13:03:26;;;;;;;16.63;2.72;;;;;;;;;;5033827;28;20064;-62
2022/10/06 13:05:53;;;;;;;10.50;3.00;;;;;;;;;;5033858;28;20041;-62
2022/10/06 13:08:29;;;;;;;11.32;2.17;;;;;;;;;;5033834;28;20034;-62
2022/10/06 13:11:14;;;;;;;16.65;2.47;;;;;;;;;;5033410;28;20041;-62
2022/10/06 13:13:48;;;;;;;15.73;2.35;;;;;;;;;;5033724;28;20076;-62
2022/10/06 13:16:15;;;;;;;10.15;2.55;;;;;;;;;;5033298;28;20029;-62
2022/10/06 13:18:41;;;;;;;17.15;3.08;;;;;;;;;;5033517;28;20048;-62
2022/10/06 13:21:15;;;;;;;5.68;2.10;;;;;;;;;;5033168;28;20094;-62
2022/10/06 13:23:42;;;;;;;13.57;2.22;;;;;;;;;;5033304;28;20033;-62
2022/10/06 13:26:08;;;;;;;16.65;2.55;;;;;;;;;;5033136;28;20393;-62
2022/10/06 13:28:43;;;;;;;10.48;2.80;;;;;;;;;;5033107;28;20025;-62
2022/10/06 13:31:19;;;;;;;16.50;2.85;;;;;;;;;;5032800;28;20555;-62
2022/10/06 13:33:46;;;;;;;14.85;2.15;;;;;;;;;;5033233;28;20029;-62
2022/10/06 13:36:12;;;;;;;15.88;2.30;;;;;;;;;;5032964;28;20022;-62
2022/10/06 13:38:40;;;;;;;15.30;2.42;;;;;;;;;;5032709;28;20033;-62
2022/10/06 13:41:06;;;;;;;15.57;2.33;;;;;;;;;;5031545;28;20418;-62
2022/10/06 13:43:36;;;;;;;8.70;1.92;;;;;;;;;;5033092;28;20057;-62
2022/10/06 13:46:06;;;;;;;12.77;2.92;;;;;;;;;;5033050;28;20030;-62
2022/10/06 13:48:32;;;;;;;10.27;2.05;;;;;;;;;;5025162;28;20036;-62
2022/10/06 13:50:58;;;;;;;17.08;1.95;;;;;;;;;;5032515;28;20025;-62
2022/10/06 13:53:31;;;;;;;21.75;2.80;;;;;;;;;;5032324;28;20087;-62
2022/10/06 13:55:58;;;;;;;14.40;2.78;;;;;;;;;;5032625;28;20057;-62
2022/10/06 13:58:26;;;;;;;15.25;2.45;;;;;;;;;;5032422;28;20053;-62
2022/10/06 14:00:55;;;;;;;10.20;1.88;;;;;;;;;;5032787;28;20494;-62
2022/10/06 14:03:22;;;;;;;11.60;2.50;;;;;;;;;;5032180;28;20018;-62
2022/10/06 14:05:49;;;;;;;5.75;1.60;;;;;;;;;;5032963;28;20438;-62
2022/10/06 14:08:20;;;;;;;11.35;2.00;;;;;;;;;;5032587;28;20033;-62
2022/10/06 14:10:49;;;;;;;11.13;2.15;;;;;;;;;;5032299;28;20045;-62
2022/10/06 14:13:17;;;;;;;16.85;2.60;;;;;;;;;;5031975;28;20053;-62
2022/10/06 14:16:02;;;;;;;15.45;2.13;;;;;;;;;;5032570;28;20481;-62
2022/10/06 14:18:36;;;;;;;18.63;2.17;;;;;;;;;;5032100;28;20033;-62
2022/10/06 14:21:21;;;;;;;11.77;2.03;;;;;;;;;;5032176;28;20029;-62
2022/10/06 14:23:51;;;;;;;9.77;2.70;;;;;;;;;;5030943;28;20437;-62
2022/10/06 14:26:18;;;;;;;10.13;2.10;;;;;;;;;;5033156;28;20471;-62
2022/10/06 14:28:50;;;;;;;12.32;1.80;;;;;;;;;;5033493;28;20038;-62
2022/10/06 14:31:16;;;;;;;11.60;2.33;;;;;;;;;;5033273;28;20034;-62
2022/10/06 14:33:42;;;;;;;10.57;2.03;;;;;;;;;;5033351;28;20494;-62
2022/10/06 14:36:16;;;;;;;12.35;2.33;;;;;;;;;;5033318;28;20040;-62
2022/10/06 14:38:42;;;;;;;15.80;1.92;;;;;;;;;;5033068;28;20036;-62
2022/10/06 14:41:09;;;;;;;25.17;2.67;;;;;;;;;;5051235;28;20029;-62
2022/10/06 14:43:35;;;;;;;16.48;2.50;;;;;;;;;;5053008;28;20028;-62
2022/10/06 14:46:01;;;;;;;16.40;2.60;;;;;;;;;;5053086;28;20021;-62
2022/10/06 14:48:28;;;;;;;12.07;2.78;;;;;;;;;;5052900;28;20032;-62
2022/10/06 14:50:55;;;;;;;20.45;2.75;;;;;;;;;;5052814;28;20032;-62
2022/10/06 14:53:21;;;;;;;10.52;2.67;;;;;;;;;;5052422;28;20033;-62
2022/10/06 14:55:47;;;;;;;15.30;3.20;;;;;;;;;;5053127;28;20025;-62
2022/10/06 14:58:13;;;;;;;16.48;2.55;;;;;;;;;;5052973;28;20040;-62
2022/10/06 15:00:41;;;;;;;17.63;2.38;;;;;;;;;;5052690;28;20013;-62
2022/10/06 15:03:07;;;;;;;15.85;3.08;;;;;;;;;;5053206;28;20025;-62
2022/10/06 15:08:08;;;;;;;17.85;2.90;;;;;;;;;;5040124;28;20037;-62